Harpursville, New York
Current Conditions -  °F | °C
As of 8:53 AM on Thursday 29 Jan 2015 (Local Time) from KBGM Reporting Station
Clear Clear  
Wind Chill: -3°   Ceiling: Unl
Heat Index:   Visibility: 10mi
Dew Point:   Wind: 7mph
Humidity: 83%   Direction: 140°SE
Pressure: 30.13"   Gusts: NA
Location:  42.18°N, 75.62°W
Report Text: KBGM 291353Z 14006KT 10SM CLR M13/M16 A3013 RMK AO2 SLP237 T11331156
Loading
Personal Weather Stations






























Interactive Weather Map New forecast layout! Learn more

10-Day Weather Forecast

Advertisements
Track Severe Weather on mobile